createdAt,value
2023-03-26T00:07:35.490Z,2.20
2023-03-26T00:12:35.512Z,2.20
2023-03-26T00:22:35.508Z,2.10
2023-03-26T00:47:35.559Z,2.90
2023-03-26T00:52:35.546Z,2.90
2023-03-26T00:57:36.395Z,2.90
2023-03-26T01:02:36.756Z,3.60
2023-03-26T01:07:35.535Z,3.60
2023-03-26T01:12:35.680Z,3.60
2023-03-26T01:17:35.555Z,4.10
2023-03-26T01:22:35.536Z,4.10
2023-03-26T01:32:35.674Z,3.00
2023-03-26T01:37:35.522Z,3.00
2023-03-26T01:47:35.587Z,3.80
2023-03-26T01:57:35.543Z,3.80
2023-03-26T02:07:35.545Z,4.00
2023-03-26T02:12:35.553Z,4.00
2023-03-26T02:17:35.610Z,3.90
2023-03-26T02:22:35.533Z,3.90
2023-03-26T02:27:35.550Z,3.90
2023-03-26T03:02:35.662Z,3.90
2023-03-26T03:32:35.613Z,4.80
2023-03-26T03:42:35.559Z,4.80
2023-03-26T03:47:35.599Z,4.20
2023-03-26T04:12:35.589Z,3.70
2023-03-26T04:17:35.620Z,3.30
2023-03-26T04:42:35.589Z,3.20
2023-03-26T04:47:35.622Z,3.00
2023-03-26T05:12:35.579Z,4.10
2023-03-26T05:37:35.617Z,2.30
2023-03-26T06:07:35.607Z,2.20
2023-03-26T06:12:35.619Z,2.20
2023-03-26T06:17:35.622Z,2.70
2023-03-26T06:43:07.569Z,2.60
2023-03-26T06:47:35.626Z,2.50
2023-03-26T06:52:35.636Z,2.50
2023-03-26T06:57:35.626Z,2.50
2023-03-26T07:07:35.628Z,2.70
2023-03-26T07:22:35.615Z,2.50
2023-03-26T07:27:35.643Z,2.50
2023-03-26T07:37:35.637Z,2.20
2023-03-26T07:42:35.648Z,2.20
2023-03-26T07:47:35.637Z,2.80
2023-03-26T07:52:35.675Z,2.80
2023-03-26T07:57:35.692Z,2.80
2023-03-26T08:07:35.638Z,2.30
2023-03-26T08:17:35.667Z,2.60
2023-03-26T08:22:35.648Z,2.60
2023-03-26T08:27:35.644Z,2.60
2023-03-26T08:32:35.686Z,1.90
2023-03-26T08:42:35.656Z,1.90
2023-03-26T08:47:35.688Z,3.00
2023-03-26T08:52:35.689Z,3.00
2023-03-26T08:57:35.671Z,3.00
2023-03-26T09:02:35.723Z,2.20
2023-03-26T09:07:35.649Z,2.20
2023-03-26T09:12:35.689Z,2.20
2023-03-26T09:22:35.677Z,3.00
2023-03-26T09:27:35.658Z,3.00
2023-03-26T09:32:35.760Z,2.30
2023-03-26T09:37:35.681Z,2.30
2023-03-26T09:42:35.671Z,2.30
2023-03-26T09:47:35.691Z,2.40
2023-03-26T09:57:35.704Z,2.40
2023-03-26T10:02:45.925Z,2.20
2023-03-26T10:07:35.676Z,2.20
2023-03-26T10:12:35.679Z,2.20
2023-03-26T10:17:35.783Z,2.20
2023-03-26T10:27:35.737Z,2.20
2023-03-26T10:32:35.755Z,2.30
2023-03-26T10:37:35.666Z,2.30
2023-03-26T10:42:35.679Z,2.30
2023-03-26T10:47:36.830Z,0.90
2023-03-26T10:52:35.696Z,0.90
2023-03-26T10:57:35.692Z,0.90
2023-03-26T11:02:35.693Z,2.80
2023-03-26T11:07:35.688Z,2.80
2023-03-26T11:12:35.734Z,2.80
2023-03-26T11:17:40.134Z,3.00
2023-03-26T11:22:35.688Z,3.00
2023-03-26T11:27:35.701Z,3.00
2023-03-26T11:37:35.723Z,2.70
2023-03-26T11:42:35.709Z,2.70
2023-03-26T11:47:35.790Z,3.90
2023-03-26T12:02:35.940Z,3.00
2023-03-26T12:07:35.687Z,3.00
2023-03-26T12:12:35.701Z,3.00
2023-03-26T12:17:35.746Z,3.50
2023-03-26T12:27:35.707Z,3.50
2023-03-26T12:37:35.737Z,3.90
2023-03-26T12:44:43.143Z,3.90
2023-03-26T12:47:59.507Z,4.20
2023-03-26T12:52:35.721Z,4.20
2023-03-26T12:57:35.753Z,4.20
2023-03-26T13:02:35.834Z,3.10
2023-03-26T13:07:35.749Z,3.10
2023-03-26T13:12:35.723Z,3.10
2023-03-26T13:17:35.781Z,2.80
2023-03-26T13:22:35.745Z,2.80
2023-03-26T13:27:35.739Z,2.80
2023-03-26T13:37:35.757Z,2.60
2023-03-26T13:42:35.752Z,2.60
2023-03-26T13:47:35.794Z,2.40
2023-03-26T13:52:35.748Z,2.40
2023-03-26T13:57:35.736Z,2.40
2023-03-26T14:02:35.763Z,1.90
2023-03-26T14:07:35.776Z,1.90
2023-03-26T14:12:35.748Z,1.90
2023-03-26T14:17:35.792Z,1.80
2023-03-26T14:22:35.737Z,1.80
2023-03-26T14:32:35.802Z,2.20
2023-03-26T14:37:35.758Z,2.20
2023-03-26T14:42:36.420Z,2.20
2023-03-26T14:47:35.927Z,1.30
2023-03-26T14:52:35.762Z,1.30
2023-03-26T14:57:35.772Z,1.30
2023-03-26T15:07:35.784Z,1.50
2023-03-26T15:12:35.774Z,1.50
2023-03-26T15:22:35.762Z,1.80
2023-03-26T15:27:35.769Z,1.80
2023-03-26T15:32:35.823Z,1.30
2023-03-26T15:37:35.773Z,1.30
2023-03-26T15:42:37.885Z,1.30
2023-03-26T15:47:35.815Z,1.50
2023-03-26T15:52:35.779Z,1.50
2023-03-26T15:57:35.774Z,1.50
2023-03-26T16:02:35.779Z,2.30
2023-03-26T16:12:35.807Z,2.30
2023-03-26T16:17:35.812Z,1.60
2023-03-26T16:22:35.767Z,1.60
2023-03-26T16:27:35.796Z,1.60
2023-03-26T16:37:35.772Z,1.50
2023-03-26T16:42:35.807Z,1.50
2023-03-26T16:47:35.812Z,2.20
2023-03-26T16:52:35.806Z,2.20
2023-03-26T16:57:35.785Z,2.20
2023-03-26T17:07:35.806Z,1.60
2023-03-26T17:12:35.797Z,1.60
2023-03-26T17:32:35.822Z,1.10
2023-03-26T17:37:35.801Z,1.10
2023-03-26T17:42:36.113Z,1.10
2023-03-26T17:47:35.873Z,1.20
2023-03-26T17:52:35.803Z,1.20
2023-03-26T17:57:35.804Z,1.20
2023-03-26T18:02:36.031Z,1.10
2023-03-26T18:07:35.821Z,1.10
2023-03-26T18:12:35.859Z,1.10
2023-03-26T18:17:35.880Z,1.10
2023-03-26T18:22:35.845Z,1.10
2023-03-26T18:27:35.810Z,1.10
2023-03-26T18:32:35.863Z,1.00
2023-03-26T18:37:35.857Z,1.00
2023-03-26T18:42:35.840Z,1.00
2023-03-26T18:52:35.833Z,0.90
2023-03-26T18:57:35.821Z,0.90
2023-03-26T19:02:35.997Z,1.10
2023-03-26T19:07:35.821Z,1.10
2023-03-26T19:12:35.825Z,1.10
2023-03-26T19:17:35.848Z,1.00
2023-03-26T19:22:35.842Z,1.00
2023-03-26T19:27:35.840Z,1.00
2023-03-26T19:32:35.853Z,1.10
2023-03-26T19:37:35.843Z,1.10
2023-03-26T19:42:43.685Z,1.10
2023-03-26T19:47:48.426Z,1.10
2023-03-26T19:52:35.843Z,1.10
2023-03-26T20:02:36.029Z,1.50
2023-03-26T20:07:36.464Z,1.50
2023-03-26T20:12:35.844Z,1.50
2023-03-26T20:22:35.878Z,1.20
2023-03-26T20:32:35.862Z,1.40
2023-03-26T20:37:35.872Z,1.40
2023-03-26T20:42:35.864Z,1.40
2023-03-26T20:47:35.863Z,1.20
2023-03-26T20:52:35.849Z,1.20
2023-03-26T20:57:35.860Z,1.20
2023-03-26T21:02:36.002Z,1.30
2023-03-26T21:12:35.860Z,1.30
2023-03-26T21:17:35.926Z,1.50
2023-03-26T21:32:35.899Z,1.00
2023-03-26T21:37:35.872Z,1.00
2023-03-26T21:42:35.885Z,1.00
2023-03-26T21:47:35.889Z,1.40
2023-03-26T21:52:35.894Z,1.40
2023-03-26T21:57:35.889Z,1.40
2023-03-26T22:02:35.941Z,1.20
2023-03-26T22:07:35.884Z,1.20
2023-03-26T22:17:35.982Z,1.10
2023-03-26T22:22:35.885Z,1.10
2023-03-26T22:32:35.902Z,1.10
2023-03-26T22:37:35.890Z,1.10
2023-03-26T22:42:35.878Z,1.10
2023-03-26T22:47:35.976Z,1.00
2023-03-26T22:52:35.884Z,1.00
2023-03-26T23:07:35.876Z,0.90
2023-03-26T23:12:35.901Z,0.90
2023-03-26T23:17:36.016Z,1.20
2023-03-26T23:22:35.890Z,1.20
2023-03-26T23:32:35.934Z,1.20
2023-03-26T23:37:35.906Z,1.20
2023-03-26T23:42:35.898Z,1.20
2023-03-26T23:47:35.932Z,1.00
2023-03-26T23:52:35.885Z,1.00
